Time;durP1;ratioP1;P1;durP2;ratioP2;P2;SDS_P1;SDS_P2;PMS_P1;PMS_P2;Temp;Humidity;BMP_temperature;BMP_pressure;BME280_temperature;BME280_humidity;BME280_pressure;Samples;Min_cycle;Max_cycle;Signal;HPM_P1;HPM_P2
2023/06/30 00:01:28;;;;;;;25.33;9.97;;;;;;;17.84;100.00;100527.13;6049901;28;20457;-64
2023/06/30 00:04:26;;;;;;;23.95;9.82;;;;;;;17.70;100.00;100514.63;6037189;28;20029;-65
2023/06/30 00:07:21;;;;;;;24.15;9.98;;;;;;;17.85;100.00;100542.16;6023539;28;20064;-65
2023/06/30 00:10:18;;;;;;;27.13;10.60;;;;;;;17.80;100.00;100547.28;6041071;28;20482;-64
2023/06/30 00:13:13;;;;;;;21.08;9.90;;;;;;;17.68;100.00;100538.16;6044067;28;20265;-65
2023/06/30 00:16:08;;;;;;;24.30;10.83;;;;;;;17.64;100.00;100547.59;6050723;28;20535;-67
2023/06/30 00:19:04;;;;;;;23.60;10.82;;;;;;;17.59;100.00;100544.69;6051002;28;20269;-64
2023/06/30 00:22:00;;;;;;;22.75;10.45;;;;;;;17.56;100.00;100553.13;6048143;28;20033;-64
2023/06/30 00:24:55;;;;;;;23.77;12.03;;;;;;;17.51;100.00;100541.28;6039671;28;20385;-68
2023/06/30 00:27:50;;;;;;;31.00;11.95;;;;;;;17.51;100.00;100547.47;6038864;28;20103;-67
2023/06/30 00:30:46;;;;;;;23.17;11.03;;;;;;;17.49;100.00;100544.19;6050954;28;20469;-65
2023/06/30 00:33:41;;;;;;;27.07;11.03;;;;;;;17.47;100.00;100538.19;6050195;28;20061;-65
2023/06/30 00:36:36;;;;;;;24.60;10.87;;;;;;;17.52;100.00;100535.75;6050616;28;20740;-65
2023/06/30 00:39:32;;;;;;;26.53;11.03;;;;;;;17.61;100.00;100548.00;6050779;28;20075;-64
2023/06/30 00:42:27;;;;;;;27.63;11.93;;;;;;;17.52;100.00;100535.75;6027568;28;20030;-65
2023/06/30 00:45:22;;;;;;;26.63;12.03;;;;;;;17.52;100.00;100527.69;6048699;28;20265;-64
2023/06/30 00:48:19;;;;;;;28.03;11.63;;;;;;;17.58;100.00;100544.91;6050177;28;20044;-65
2023/06/30 00:51:14;;;;;;;26.65;11.77;;;;;;;17.44;100.00;100519.81;6049369;28;20084;-65
2023/06/30 00:54:09;;;;;;;27.50;12.13;;;;;;;17.45;100.00;100518.75;6037182;28;20473;-65
2023/06/30 00:57:06;;;;;;;29.67;11.03;;;;;;;17.48;100.00;100534.47;6036445;28;20274;-65
2023/06/30 01:00:05;;;;;;;25.30;11.95;;;;;;;17.49;100.00;100527.25;6025188;28;20625;-64
2023/06/30 01:03:11;;;;;;;25.15;11.90;;;;;;;17.59;100.00;100523.22;6047047;28;20040;-66
2023/06/30 01:06:22;;;;;;;27.48;11.52;;;;;;;17.56;100.00;100520.94;6036069;28;20100;-65
2023/06/30 01:09:21;;;;;;;24.67;10.48;;;;;;;17.54;100.00;100535.56;6065082;28;20036;-66
2023/06/30 01:12:16;;;;;;;20.10;10.70;;;;;;;17.31;100.00;100519.72;6040860;28;20083;-65
2023/06/30 01:15:14;;;;;;;26.83;12.60;;;;;;;17.35;100.00;100531.69;6064491;28;20466;-65
2023/06/30 01:18:10;;;;;;;27.83;11.35;;;;;;;17.25;100.00;100531.19;6064974;28;20029;-66
2023/06/30 01:21:06;;;;;;;25.08;10.93;;;;;;;17.18;100.00;100532.97;6034647;28;20050;-66
2023/06/30 01:24:03;;;;;;;28.23;11.25;;;;;;;17.05;100.00;100535.53;6044527;28;20038;-65
2023/06/30 01:26:59;;;;;;;24.20;10.15;;;;;;;16.92;100.00;100522.03;6050943;28;20080;-65
2023/06/30 01:29:55;;;;;;;30.67;10.70;;;;;;;16.93;100.00;100539.78;6049629;28;20030;-65
2023/06/30 01:32:54;;;;;;;26.83;11.00;;;;;;;16.80;100.00;100526.22;6049863;28;20095;-66
2023/06/30 01:35:49;;;;;;;26.17;11.75;;;;;;;16.83;100.00;100536.56;6049238;28;20061;-65
2023/06/30 01:38:45;;;;;;;26.07;10.77;;;;;;;16.76;100.00;100525.78;6049370;28;20030;-66
2023/06/30 01:41:40;;;;;;;25.93;11.23;;;;;;;16.91;100.00;100533.75;6049123;28;20033;-65
2023/06/30 01:44:36;;;;;;;27.13;11.53;;;;;;;16.94;100.00;100531.53;6064007;28;20048;-65
2023/06/30 01:47:31;;;;;;;27.13;10.85;;;;;;;16.81;100.00;100520.69;6049742;28;20173;-66
2023/06/30 01:50:29;;;;;;;26.77;11.93;;;;;;;16.99;100.00;100526.41;6064927;28;20416;-66
2023/06/30 01:53:26;;;;;;;27.40;11.35;;;;;;;16.91;100.00;100523.03;6048653;28;20080;-65
2023/06/30 01:56:21;;;;;;;29.60;11.98;;;;;;;16.86;100.00;100534.34;6045977;28;20057;-66
2023/06/30 01:59:17;;;;;;;30.73;12.80;;;;;;;16.82;100.00;100524.22;6023711;28;20032;-65
2023/06/30 02:02:12;;;;;;;31.13;12.30;;;;;;;16.88;100.00;100528.78;6049504;28;20030;-66
2023/06/30 02:05:08;;;;;;;25.83;11.23;;;;;;;16.81;100.00;100511.81;6036315;28;20026;-65
2023/06/30 02:08:03;;;;;;;25.95;10.85;;;;;;;16.76;100.00;100524.97;6047567;28;20285;-65
2023/06/30 02:10:58;;;;;;;26.55;12.55;;;;;;;16.68;100.00;100523.25;6040870;28;20037;-65
2023/06/30 02:13:54;;;;;;;24.60;11.07;;;;;;;16.59;100.00;100509.13;6039297;28;20037;-66
2023/06/30 02:16:49;;;;;;;31.57;12.20;;;;;;;16.77;100.00;100513.25;6048791;28;20029;-65
2023/06/30 02:19:44;;;;;;;28.17;11.77;;;;;;;16.68;100.00;100504.50;6049012;28;20033;-65
2023/06/30 02:22:40;;;;;;;27.37;11.33;;;;;;;16.70;100.00;100509.66;6041360;28;20030;-66
2023/06/30 02:25:35;;;;;;;32.07;12.23;;;;;;;16.72;100.00;100516.47;6044194;28;20589;-65
2023/06/30 02:28:30;;;;;;;28.93;12.33;;;;;;;16.85;100.00;100523.84;6048672;28;20489;-66
2023/06/30 02:31:26;;;;;;;28.20;11.40;;;;;;;16.76;100.00;100516.94;6028104;28;20081;-66
2023/06/30 02:34:21;;;;;;;27.97;11.43;;;;;;;16.86;100.00;100517.44;6036355;28;20023;-66
2023/06/30 02:37:16;;;;;;;27.43;13.00;;;;;;;16.90;100.00;100516.88;6034366;28;20266;-66
2023/06/30 02:40:11;;;;;;;24.83;11.73;;;;;;;16.86;100.00;100509.41;6038955;28;20022;-66
2023/06/30 02:43:07;;;;;;;27.77;12.77;;;;;;;17.14;100.00;100512.97;6046341;28;20041;-65
2023/06/30 02:46:02;;;;;;;24.70;11.10;;;;;;;17.12;100.00;100520.38;6055064;28;20048;-65
2023/06/30 02:48:57;;;;;;;32.57;11.37;;;;;;;17.02;100.00;100509.13;6045374;28;20053;-66
2023/06/30 02:51:52;;;;;;;27.33;12.93;;;;;;;17.00;100.00;100513.88;6052896;28;20029;-66
2023/06/30 02:54:48;;;;;;;30.23;12.30;;;;;;;16.93;100.00;100507.63;6052279;28;20052;-64
2023/06/30 02:57:43;;;;;;;29.70;12.33;;;;;;;16.88;100.00;100497.47;6040326;28;20039;-65
2023/06/30 03:00:39;;;;;;;30.25;13.07;;;;;;;16.98;100.00;100505.19;6050192;28;20076;-66
2023/06/30 03:03:35;;;;;;;32.75;14.18;;;;;;;16.90;100.00;100499.97;6033409;28;20069;-66
2023/06/30 03:06:30;;;;;;;33.25;13.50;;;;;;;16.98;100.00;100507.88;6030199;28;20045;-66
2023/06/30 03:09:26;;;;;;;31.87;15.30;;;;;;;16.95;100.00;100497.53;6052482;28;20373;-64
2023/06/30 03:12:21;;;;;;;36.17;14.80;;;;;;;17.04;100.00;100517.84;6039533;28;20462;-65
2023/06/30 03:15:16;;;;;;;33.10;13.43;;;;;;;16.96;100.00;100516.09;6043463;28;20532;-66
2023/06/30 03:18:12;;;;;;;35.37;14.20;;;;;;;17.03;100.00;100521.53;6052860;28;20095;-66
2023/06/30 03:21:07;;;;;;;29.90;13.77;;;;;;;17.02;100.00;100504.59;6052015;28;20080;-65
2023/06/30 03:24:02;;;;;;;36.67;15.17;;;;;;;17.15;100.00;100514.59;6038814;28;20034;-66
2023/06/30 03:26:58;;;;;;;35.20;14.77;;;;;;;17.08;100.00;100505.69;6051824;28;20388;-65
2023/06/30 03:29:53;;;;;;;32.67;13.57;;;;;;;17.16;100.00;100500.19;6052088;28;20022;-65
2023/06/30 03:32:48;;;;;;;38.13;14.60;;;;;;;17.11;100.00;100497.25;6051949;28;20018;-65
2023/06/30 03:35:43;;;;;;;32.33;13.73;;;;;;;17.19;100.00;100505.16;6051142;28;20030;-66
2023/06/30 03:38:39;;;;;;;31.43;13.87;;;;;;;17.12;100.00;100493.56;6041348;28;20033;-66
2023/06/30 03:41:34;;;;;;;35.23;14.60;;;;;;;17.09;100.00;100491.28;6047848;28;20419;-66
2023/06/30 03:44:30;;;;;;;35.30;14.50;;;;;;;17.21;100.00;100503.94;6042759;28;20026;-66
2023/06/30 03:47:25;;;;;;;30.35;13.02;;;;;;;17.23;100.00;100501.06;6050942;28;20029;-65
2023/06/30 03:50:21;;;;;;;31.38;14.27;;;;;;;17.24;100.00;100497.38;6041054;28;20069;-65
2023/06/30 03:53:16;;;;;;;32.90;13.23;;;;;;;17.14;100.00;100488.84;6047319;28;20037;-64
2023/06/30 03:56:11;;;;;;;32.23;14.37;;;;;;;17.11;100.00;100487.38;6032151;28;20279;-66
2023/06/30 03:59:07;;;;;;;36.23;13.97;;;;;;;17.16;100.00;100501.03;6040189;28;20054;-66
2023/06/30 04:02:02;;;;;;;32.03;13.87;;;;;;;17.13;100.00;100497.91;6035462;28;20040;-65
2023/06/30 04:04:57;;;;;;;33.17;13.67;;;;;;;17.17;100.00;100501.84;6037578;28;20129;-65
2023/06/30 04:07:53;;;;;;;33.70;12.97;;;;;;;17.16;100.00;100498.34;6024302;28;20273;-65
2023/06/30 04:10:48;;;;;;;34.83;14.37;;;;;;;17.14;100.00;100497.72;6011337;28;20285;-66
2023/06/30 04:13:43;;;;;;;30.53;12.43;;;;;;;17.19;100.00;100511.34;6014736;28;20056;-66
2023/06/30 04:16:38;;;;;;;35.73;13.13;;;;;;;17.17;100.00;100505.38;6038438;28;20030;-66
2023/06/30 04:19:34;;;;;;;30.53;12.27;;;;;;;17.15;100.00;100510.06;6050787;28;20458;-65
2023/06/30 04:22:29;;;;;;;26.03;11.93;;;;;;;17.11;100.00;100499.94;6041870;28;20030;-65
2023/06/30 04:25:24;;;;;;;23.73;10.40;;;;;;;17.03;100.00;100492.88;6028859;28;20741;-66
2023/06/30 04:28:20;;;;;;;21.83;9.60;;;;;;;17.10;100.00;100495.59;6023442;28;20033;-66
2023/06/30 04:31:15;;;;;;;23.20;9.77;;;;;;;17.01;100.00;100496.78;6029667;28;20046;-65
2023/06/30 04:34:11;;;;;;;23.37;8.83;;;;;;;17.08;100.00;100511.03;6031840;28;20077;-65
2023/06/30 04:37:06;;;;;;;22.97;9.73;;;;;;;17.02;100.00;100511.81;6035051;28;20681;-65
2023/06/30 04:40:04;;;;;;;25.05;9.68;;;;;;;16.89;100.00;100503.66;6034387;28;20359;-64
2023/06/30 04:43:00;;;;;;;20.27;8.90;;;;;;;16.81;100.00;100506.47;6050537;28;20084;-65
2023/06/30 04:45:57;;;;;;;20.83;7.65;;;;;;;16.88;100.00;100520.75;6045110;28;20029;-66
2023/06/30 04:48:53;;;;;;;20.35;8.52;;;;;;;16.75;100.00;100509.91;6050603;28;20061;-65
2023/06/30 04:51:48;;;;;;;20.45;8.27;;;;;;;16.77;100.00;100510.56;6050462;28;20112;-66
2023/06/30 04:54:43;;;;;;;20.67;8.50;;;;;;;16.82;100.00;100521.53;6049617;28;20087;-65
2023/06/30 04:57:39;;;;;;;20.05;7.70;;;;;;;16.68;100.00;100501.81;6050469;28;20026;-66
2023/06/30 05:00:34;;;;;;;18.27;7.73;;;;;;;16.63;100.00;100499.69;6039836;28;20358;-65
2023/06/30 05:03:29;;;;;;;19.00;7.00;;;;;;;16.72;100.00;100518.31;6049950;28;20109;-66
2023/06/30 05:06:24;;;;;;;20.90;7.97;;;;;;;16.66;100.00;100503.84;6036442;28;20044;-65
2023/06/30 05:09:22;;;;;;;20.70;6.43;;;;;;;16.69;100.00;100506.13;6049790;28;20022;-65
2023/06/30 05:12:17;;;;;;;15.10;7.20;;;;;;;16.62;100.00;100508.75;6038018;28;20466;-64
2023/06/30 05:15:12;;;;;;;15.05;6.05;;;;;;;16.60;100.00;100526.03;6040430;28;20113;-64
2023/06/30 05:18:08;;;;;;;14.17;5.80;;;;;;;16.53;100.00;100523.28;6050210;28;20037;-66
2023/06/30 05:21:03;;;;;;;12.53;6.03;;;;;;;16.47;100.00;100524.00;6049958;28;20033;-66
2023/06/30 05:23:58;;;;;;;12.77;5.77;;;;;;;16.27;100.00;100519.44;6052901;28;20416;-64
2023/06/30 05:26:55;;;;;;;13.53;5.53;;;;;;;16.35;100.00;100535.38;6036640;28;20035;-64
2023/06/30 05:29:50;;;;;;;14.48;5.80;;;;;;;16.27;100.00;100530.16;6032246;28;20763;-64
2023/06/30 05:32:45;;;;;;;10.90;5.07;;;;;;;16.13;100.00;100539.00;6049927;28;20030;-62
2023/06/30 05:35:41;;;;;;;9.70;4.87;;;;;;;15.93;100.00;100525.38;6033624;28;20069;-63
2023/06/30 05:38:36;;;;;;;13.10;4.77;;;;;;;15.96;100.00;100544.56;6034607;28;20454;-62
2023/06/30 05:41:31;;;;;;;11.40;4.97;;;;;;;15.84;100.00;100540.69;6040124;28;20640;-63
2023/06/30 05:44:26;;;;;;;9.73;4.47;;;;;;;15.75;100.00;100540.97;6048804;28;20036;-63
2023/06/30 05:47:22;;;;;;;10.17;4.73;;;;;;;15.68;100.00;100548.88;6049751;28;20030;-63
2023/06/30 05:50:17;;;;;;;10.37;4.53;;;;;;;15.68;100.00;100548.06;6049534;28;20417;-63
2023/06/30 05:53:13;;;;;;;14.38;4.65;;;;;;;15.74;100.00;100550.81;6049816;28;20462;-63
2023/06/30 05:56:08;;;;;;;8.17;4.17;;;;;;;15.67;100.00;100528.50;6035238;28;20030;-63
2023/06/30 05:59:03;;;;;;;7.07;4.27;;;;;;;15.81;100.00;100546.41;6049316;28;20353;-63
2023/06/30 06:01:59;;;;;;;10.32;4.57;;;;;;;15.86;100.00;100544.00;6037908;28;20029;-63
2023/06/30 06:04:54;;;;;;;8.17;3.90;;;;;;;15.89;100.00;100542.81;6038269;28;20030;-63
2023/06/30 06:07:49;;;;;;;6.90;3.83;;;;;;;15.81;100.00;100529.53;6045952;28;20748;-63
2023/06/30 06:10:46;;;;;;;7.10;4.00;;;;;;;15.81;100.00;100530.38;6041593;28;20034;-65
2023/06/30 06:13:41;;;;;;;7.20;3.92;;;;;;;15.78;100.00;100552.13;6045405;28;20261;-63
2023/06/30 06:16:37;;;;;;;8.53;5.00;;;;;;;15.83;100.00;100556.91;6053932;28;20034;-63
2023/06/30 06:19:32;;;;;;;9.03;5.70;;;;;;;15.84;100.00;100546.06;6053920;28;20368;-62
2023/06/30 06:22:27;;;;;;;11.83;6.80;;;;;;;15.73;100.00;100545.66;6049731;28;20054;-63
2023/06/30 06:25:22;;;;;;;12.07;7.77;;;;;;;15.75;100.00;100552.50;6047549;28;20026;-64
2023/06/30 06:28:18;;;;;;;14.07;7.67;;;;;;;15.62;100.00;100546.94;6053332;28;20034;-64
2023/06/30 06:31:13;;;;;;;15.23;8.80;;;;;;;15.63;100.00;100550.44;6053764;28;20373;-63
2023/06/30 06:34:08;;;;;;;14.40;8.80;;;;;;;15.55;100.00;100562.03;6052705;28;20037;-63
2023/06/30 06:37:04;;;;;;;17.20;9.17;;;;;;;15.53;100.00;100585.47;6053252;28;20040;-62
2023/06/30 06:39:59;;;;;;;17.17;9.80;;;;;;;15.38;100.00;100572.00;6043426;28;20452;-62
2023/06/30 06:42:55;;;;;;;17.17;9.17;;;;;;;15.29;100.00;100581.13;6068384;28;20037;-63
2023/06/30 06:45:50;;;;;;;17.17;9.88;;;;;;;15.36;100.00;100595.41;6052741;28;20032;-63
2023/06/30 06:48:47;;;;;;;16.40;9.83;;;;;;;15.23;100.00;100600.53;6053023;28;20473;-63
2023/06/30 06:51:42;;;;;;;14.00;8.40;;;;;;;15.10;100.00;100589.63;6053013;28;20026;-63
2023/06/30 06:54:37;;;;;;;13.70;8.20;;;;;;;15.10;100.00;100600.31;6048329;28;20184;-63
2023/06/30 06:57:33;;;;;;;15.60;9.03;;;;;;;15.06;100.00;100588.31;6037124;28;20030;-63
2023/06/30 07:00:28;;;;;;;16.02;8.30;;;;;;;14.99;100.00;100581.19;6039106;28;20034;-63
2023/06/30 07:03:24;;;;;;;17.67;9.33;;;;;;;15.12;100.00;100587.59;6046308;28;20030;-63
2023/06/30 07:06:21;;;;;;;16.10;9.03;;;;;;;15.14;100.00;100590.09;6039484;28;20029;-63
2023/06/30 07:09:16;;;;;;;17.50;9.93;;;;;;;15.13;100.00;100591.94;6052441;28;20373;-63
2023/06/30 07:12:12;;;;;;;20.40;9.45;;;;;;;15.06;100.00;100585.63;6040904;28;20029;-63
2023/06/30 07:15:07;;;;;;;18.77;10.00;;;;;;;15.13;100.00;100585.75;6051939;28;20029;-63
2023/06/30 07:18:03;;;;;;;20.52;9.52;;;;;;;15.07;100.00;100589.97;6052046;28;20261;-64
2023/06/30 07:20:58;;;;;;;18.55;9.90;;;;;;;15.05;100.00;100575.97;6052291;28;20029;-63
2023/06/30 07:23:53;;;;;;;19.10;9.33;;;;;;;15.40;100.00;100567.34;6050391;28;20541;-63
2023/06/30 07:26:49;;;;;;;17.83;9.90;;;;;;;15.34;100.00;100570.72;6051874;28;20034;-63
2023/06/30 07:29:44;;;;;;;18.17;10.20;;;;;;;15.40;100.00;100571.84;6048203;28;20284;-63
2023/06/30 07:32:41;;;;;;;15.73;8.93;;;;;;;15.34;100.00;100562.72;6051855;28;20040;-64
2023/06/30 07:35:36;;;;;;;20.42;10.73;;;;;;;15.35;100.00;100571.56;6051400;28;20367;-63
2023/06/30 07:38:32;;;;;;;15.43;9.37;;;;;;;15.38;100.00;100577.34;6051987;28;20034;-63
2023/06/30 07:41:34;;;;;;;21.70;10.10;;;;;;;15.47;100.00;100596.88;6051757;28;20033;-63
2023/06/30 07:44:29;;;;;;;17.40;10.48;;;;;;;15.40;100.00;100575.34;6048104;28;20030;-63
2023/06/30 07:47:25;;;;;;;22.90;11.07;;;;;;;15.53;100.00;100592.63;6041896;28;20089;-63
2023/06/30 07:50:21;;;;;;;17.85;10.50;;;;;;;15.67;100.00;100587.34;6033502;28;20554;-63
2023/06/30 07:53:16;;;;;;;19.20;10.30;;;;;;;15.67;100.00;100592.69;6042934;28;20799;-64
2023/06/30 07:56:11;;;;;;;22.23;10.43;;;;;;;15.74;100.00;100603.47;6043509;28;20485;-62
2023/06/30 07:59:07;;;;;;;17.20;9.00;;;;;;;15.73;100.00;100617.88;6050641;28;20256;-63
2023/06/30 08:02:02;;;;;;;20.37;9.83;;;;;;;15.66;100.00;100611.56;6019531;28;20632;-62
2023/06/30 08:04:57;;;;;;;15.60;9.00;;;;;;;15.64;100.00;100618.94;6022242;28;20269;-63
2023/06/30 08:07:52;;;;;;;16.33;9.03;;;;;;;15.61;100.00;100616.63;6048703;28;20045;-63
2023/06/30 08:10:48;;;;;;;16.10;8.30;;;;;;;15.58;100.00;100615.13;6051264;28;20284;-63
2023/06/30 08:13:43;;;;;;;15.27;8.27;;;;;;;15.47;100.00;100592.34;6042992;28;20037;-62
2023/06/30 08:16:38;;;;;;;17.50;9.10;;;;;;;15.52;100.00;100610.50;6049296;28;20292;-63
2023/06/30 08:19:34;;;;;;;16.60;8.43;;;;;;;15.48;100.00;100594.03;6021614;28;20047;-62
2023/06/30 08:22:29;;;;;;;15.23;8.50;;;;;;;15.73;100.00;100620.53;6048405;28;20032;-63
2023/06/30 08:25:25;;;;;;;13.43;7.90;;;;;;;15.81;100.00;100623.97;6045941;28;20026;-63
2023/06/30 08:28:23;;;;;;;14.13;7.68;;;;;;;15.77;100.00;100605.78;6050922;28;20041;-64
2023/06/30 08:31:19;;;;;;;15.38;7.80;;;;;;;15.86;100.00;100602.84;6034745;28;20036;-62
2023/06/30 08:34:14;;;;;;;11.95;8.05;;;;;;;15.95;100.00;100612.44;6031807;28;20378;-63
2023/06/30 08:37:09;;;;;;;14.73;6.93;;;;;;;15.99;100.00;100603.03;6033471;28;20038;-63
2023/06/30 08:40:06;;;;;;;11.40;6.70;;;;;;;16.09;100.00;100595.56;6031866;28;20026;-64
2023/06/30 08:43:06;;;;;;;10.50;5.90;;;;;;;16.12;100.00;100602.38;6027896;28;20124;-64
2023/06/30 08:46:02;;;;;;;12.77;5.80;;;;;;;16.44;100.00;100627.97;6014225;28;20157;-64
2023/06/30 08:48:57;;;;;;;9.48;5.63;;;;;;;16.53;100.00;100608.94;6032170;28;20493;-64
2023/06/30 08:51:56;;;;;;;10.77;5.75;;;;;;;16.71;100.00;100600.53;6029873;28;20103;-65
2023/06/30 08:54:53;;;;;;;9.00;4.63;;;;;;;16.78;100.00;100613.97;6046848;28;20095;-63
2023/06/30 08:57:48;;;;;;;7.38;4.63;;;;;;;16.94;100.00;100613.75;6027728;28;20450;-64
2023/06/30 09:00:44;;;;;;;7.55;4.53;;;;;;;16.77;100.00;100602.44;6031352;28;20055;-64
2023/06/30 09:03:40;;;;;;;9.02;4.32;;;;;;;17.02;100.00;100616.31;6037830;28;20034;-64
2023/06/30 09:06:38;;;;;;;9.05;4.60;;;;;;;16.80;100.00;100593.19;6023619;28;20037;-63
2023/06/30 09:09:45;;;;;;;6.32;4.03;;;;;;;16.94;100.00;100609.22;6064397;28;20096;-63
2023/06/30 09:12:41;;;;;;;7.55;4.32;;;;;;;16.92;100.00;100616.63;6027730;28;20397;-65
2023/06/30 09:15:36;;;;;;;7.10;3.70;;;;;;;17.00;100.00;100619.19;6016381;28;20066;-64
2023/06/30 09:18:32;;;;;;;7.65;4.10;;;;;;;17.03;100.00;100602.72;6034923;28;20022;-65
2023/06/30 09:21:28;;;;;;;6.72;4.22;;;;;;;16.98;100.00;100609.69;6049366;28;20056;-64
2023/06/30 09:24:23;;;;;;;6.87;4.07;;;;;;;17.14;100.00;100625.50;6048789;28;20046;-64
2023/06/30 09:27:19;;;;;;;7.93;4.57;;;;;;;17.22;100.00;100623.53;6043993;28;20327;-63
2023/06/30 09:30:14;;;;;;;8.80;4.20;;;;;;;17.13;100.00;100618.50;6046903;28;20032;-65
2023/06/30 09:33:12;;;;;;;5.73;4.30;;;;;;;17.04;100.00;100616.97;6041029;28;20026;-64
2023/06/30 09:36:08;;;;;;;6.82;3.80;;;;;;;17.17;100.00;100604.53;6039991;28;20026;-64
2023/06/30 09:39:07;;;;;;;7.37;3.90;;;;;;;17.33;100.00;100607.97;6048958;28;20037;-66
2023/06/30 09:42:03;;;;;;;6.05;3.70;;;;;;;17.42;100.00;100617.53;6026596;28;20037;-64
2023/06/30 09:44:58;;;;;;;7.70;3.20;;;;;;;17.73;100.00;100620.72;6044476;28;20026;-64
2023/06/30 09:47:54;;;;;;;6.60;2.97;;;;;;;17.80;100.00;100605.50;6047558;28;20472;-64
2023/06/30 09:50:51;;;;;;;4.50;3.00;;;;;;;18.01;100.00;100623.41;6052463;28;20034;-65
2023/06/30 09:53:46;;;;;;;5.65;3.20;;;;;;;18.20;100.00;100612.78;6056471;28;20076;-64
2023/06/30 09:56:42;;;;;;;5.67;3.10;;;;;;;18.74;100.00;100603.97;6054996;28;20049;-64
2023/06/30 09:59:38;;;;;;;7.13;3.47;;;;;;;18.89;100.00;100613.53;6056085;28;20022;-65
2023/06/30 10:02:33;;;;;;;6.25;3.13;;;;;;;18.85;100.00;100606.91;6040638;28;20092;-64
2023/06/30 10:05:29;;;;;;;4.57;2.87;;;;;;;18.37;99.54;100607.94;6033185;28;20062;-64
2023/06/30 10:08:25;;;;;;;4.90;2.95;;;;;;;18.05;100.00;100616.59;6049952;28;20073;-64
2023/06/30 10:11:22;;;;;;;5.90;3.15;;;;;;;17.81;100.00;100602.63;6050746;28;20038;-63
2023/06/30 10:14:20;;;;;;;7.55;3.20;;;;;;;17.99;100.00;100614.72;6046336;28;20061;-64
2023/06/30 10:17:15;;;;;;;5.47;3.22;;;;;;;17.83;100.00;100600.56;6045791;28;20040;-66
2023/06/30 10:20:11;;;;;;;7.27;3.33;;;;;;;17.85;100.00;100622.66;6049050;28;20022;-65
2023/06/30 10:23:06;;;;;;;6.60;3.55;;;;;;;17.82;100.00;100609.66;6045356;28;20423;-67
2023/06/30 10:26:04;;;;;;;8.20;4.00;;;;;;;17.82;100.00;100606.97;6054926;28;20033;-63
2023/06/30 10:28:59;;;;;;;5.38;3.63;;;;;;;17.80;100.00;100617.06;6056500;28;20045;-64
2023/06/30 10:31:54;;;;;;;7.90;4.37;;;;;;;17.76;100.00;100620.31;6042538;28;20462;-66
2023/06/30 10:34:50;;;;;;;6.67;4.13;;;;;;;17.57;100.00;100610.28;6058706;28;20299;-65
2023/06/30 10:37:46;;;;;;;7.60;4.13;;;;;;;17.70;100.00;100613.06;6051190;28;20456;-64
2023/06/30 10:40:42;;;;;;;8.43;3.90;;;;;;;18.12;100.00;100612.97;6046729;28;20101;-66
2023/06/30 10:44:13;;;;;;;6.15;3.70;;;;;;;18.82;99.04;100618.06;6050113;28;20038;-65
2023/06/30 10:47:09;;;;;;;6.70;4.05;;;;;;;19.17;97.95;100604.50;6026642;28;20076;-65
2023/06/30 10:50:12;;;;;;;6.10;4.03;;;;;;;19.38;95.69;100613.22;6035600;28;20474;-64
2023/06/30 10:53:07;;;;;;;5.13;3.40;;;;;;;19.45;92.40;100591.72;6049182;28;20045;-65
2023/06/30 10:56:03;;;;;;;6.68;3.78;;;;;;;20.12;89.65;100589.59;6049649;28;20037;-65
2023/06/30 10:58:58;;;;;;;6.72;3.25;;;;;;;20.45;86.72;100602.16;6068393;28;20199;-65
2023/06/30 11:02:18;;;;;;;5.05;3.55;;;;;;;20.10;84.54;100607.00;6038445;28;20061;-66
2023/06/30 11:05:32;;;;;;;6.30;3.80;;;;;;;19.71;86.87;100593.56;6027727;28;20034;-65
2023/06/30 11:08:28;;;;;;;6.25;3.72;;;;;;;19.66;89.63;100591.53;6041529;28;20476;-66
2023/06/30 11:11:23;;;;;;;6.10;3.60;;;;;;;19.50;90.06;100600.00;6038760;28;20109;-65
2023/06/30 11:14:34;;;;;;;6.60;4.00;;;;;;;19.31;90.35;100603.47;6048821;28;20068;-64
2023/06/30 11:17:51;;;;;;;7.32;4.60;;;;;;;18.80;91.48;100604.00;6044276;28;20034;-65
2023/06/30 11:20:57;;;;;;;8.48;3.72;;;;;;;18.60;94.06;100596.88;6048137;28;20037;-65
2023/06/30 11:23:57;;;;;;;6.10;3.40;;;;;;;18.49;94.52;100586.72;6046435;28;20658;-66
2023/06/30 11:26:52;;;;;;;7.85;4.28;;;;;;;18.40;96.93;100591.41;6047379;28;20477;-65
2023/06/30 11:29:49;;;;;;;7.35;3.83;;;;;;;18.56;97.65;100593.78;6050801;28;20026;-64
2023/06/30 11:32:47;;;;;;;7.15;3.97;;;;;;;18.53;96.89;100586.13;6042320;28;20038;-65
2023/06/30 11:35:48;;;;;;;7.80;3.70;;;;;;;18.60;97.15;100581.59;6050102;28;20116;-65
2023/06/30 11:38:48;;;;;;;6.75;3.63;;;;;;;19.16;94.65;100578.66;6026638;28;20041;-65
2023/06/30 11:41:43;;;;;;;8.05;4.00;;;;;;;19.28;90.82;100577.00;6046627;28;20034;-65
2023/06/30 11:44:39;;;;;;;4.18;2.72;;;;;;;19.92;86.02;100577.22;6039684;28;20107;-66
2023/06/30 11:47:35;;;;;;;4.75;2.72;;;;;;;20.76;84.52;100576.09;6035787;28;20038;-65
2023/06/30 11:50:33;;;;;;;4.95;2.90;;;;;;;21.01;81.10;100573.44;6051486;28;20029;-65
2023/06/30 11:53:29;;;;;;;5.95;3.08;;;;;;;21.09;80.52;100573.22;6023589;28;20058;-65
2023/06/30 11:56:25;;;;;;;4.30;2.72;;;;;;;21.93;77.83;100564.66;6046997;28;20030;-65
2023/06/30 11:59:20;;;;;;;4.17;2.83;;;;;;;22.83;69.08;100576.50;6041892;28;20056;-66
2023/06/30 12:02:15;;;;;;;5.90;3.08;;;;;;;22.02;73.44;100582.22;6044652;28;20351;-66
2023/06/30 12:05:26;;;;;;;4.37;2.60;;;;;;;22.03;74.37;100562.28;6035493;28;20038;-65
2023/06/30 12:08:24;;;;;;;6.18;2.90;;;;;;;21.79;74.72;100582.00;6026878;28;20116;-65
2023/06/30 12:11:20;;;;;;;4.68;3.05;;;;;;;21.33;75.63;100572.41;6058657;28;20105;-65
2023/06/30 12:14:16;;;;;;;6.82;2.90;;;;;;;21.04;77.22;100562.25;6046498;28;20038;-65
2023/06/30 12:17:12;;;;;;;5.97;3.33;;;;;;;20.82;79.71;100569.00;6045450;28;20374;-65
2023/06/30 12:20:08;;;;;;;9.63;3.53;;;;;;;20.30;81.31;100558.50;6034529;28;20029;-65
2023/06/30 12:23:04;;;;;;;5.75;3.58;;;;;;;20.27;82.14;100561.63;6043407;28;20377;-65
2023/06/30 12:25:59;;;;;;;5.95;3.63;;;;;;;19.99;85.01;100562.69;6048986;28;20038;-65
2023/06/30 12:29:03;;;;;;;4.00;3.23;;;;;;;19.86;87.54;100561.91;6046271;28;20049;-65
2023/06/30 12:31:58;;;;;;;6.10;3.85;;;;;;;19.46;86.26;100553.84;6052942;28;20029;-65
2023/06/30 12:34:58;;;;;;;7.43;4.03;;;;;;;19.41;86.95;100564.41;6065523;28;20033;-65
2023/06/30 12:37:53;;;;;;;7.20;3.88;;;;;;;19.00;89.84;100555.66;6043512;28;20045;-65
2023/06/30 12:40:50;;;;;;;8.27;4.23;;;;;;;18.78;95.59;100546.94;6042446;28;20039;-64
2023/06/30 12:43:46;;;;;;;10.63;5.30;;;;;;;17.98;100.00;100549.50;6045399;28;20030;-62
2023/06/30 12:46:41;;;;;;;12.25;6.53;;;;;;;17.24;100.00;100567.88;6050743;28;20064;-65
2023/06/30 12:49:37;;;;;;;10.80;5.78;;;;;;;16.75;100.00;100569.66;6039946;28;20588;-62
2023/06/30 12:52:33;;;;;;;13.63;6.53;;;;;;;16.66;100.00;100563.59;6037990;28;20030;-63
2023/06/30 12:55:28;;;;;;;11.88;6.65;;;;;;;16.79;100.00;100567.44;6049924;28;20033;-63
2023/06/30 12:58:23;;;;;;;14.87;7.07;;;;;;;16.76;100.00;100573.16;6038294;28;20065;-65
2023/06/30 13:01:19;;;;;;;12.67;6.20;;;;;;;16.81;100.00;100568.91;6050460;28;20307;-63
2023/06/30 13:04:15;;;;;;;13.57;6.47;;;;;;;16.79;100.00;100551.38;6027424;28;20100;-63
2023/06/30 13:07:10;;;;;;;14.25;6.97;;;;;;;17.10;100.00;100539.31;6040909;28;20022;-63
2023/06/30 13:10:06;;;;;;;13.90;6.97;;;;;;;17.60;100.00;100554.41;6033532;28;20386;-63
2023/06/30 13:13:01;;;;;;;13.38;5.35;;;;;;;17.84;100.00;100551.25;6036943;28;20506;-64
2023/06/30 13:15:57;;;;;;;6.95;3.88;;;;;;;18.13;100.00;100535.91;6038543;28;20050;-64
2023/06/30 13:18:52;;;;;;;6.93;3.57;;;;;;;18.66;100.00;100543.19;6027723;28;20045;-64
2023/06/30 13:21:48;;;;;;;4.45;3.03;;;;;;;19.13;98.88;100538.72;6036052;28;20040;-65